createdAt,value
2022-07-27T00:01:14.318Z,94104.41
2022-07-27T00:03:42.678Z,94110.75
2022-07-27T00:06:10.816Z,94102.00
2022-07-27T00:08:40.456Z,94115.28
2022-07-27T00:11:10.788Z,94107.81
2022-07-27T00:13:39.169Z,94106.50
2022-07-27T00:16:07.415Z,94109.16
2022-07-27T00:18:35.661Z,94106.22
2022-07-27T00:21:03.610Z,94115.50
2022-07-27T00:23:31.633Z,94115.00
2022-07-27T00:26:01.089Z,94116.31
2022-07-27T00:28:29.091Z,94115.50
2022-07-27T00:30:57.157Z,94121.63
2022-07-27T00:33:25.279Z,94116.31
2022-07-27T00:35:53.278Z,94125.06
2022-07-27T00:38:21.261Z,94134.84
2022-07-27T00:40:49.330Z,94142.78
2022-07-27T00:43:19.642Z,94146.47
2022-07-27T00:45:47.671Z,94141.97
2022-07-27T00:48:15.655Z,94143.00
2022-07-27T00:50:45.960Z,94140.09
2022-07-27T00:53:14.176Z,94146.19
2022-07-27T00:55:42.209Z,94142.47
2022-07-27T00:58:10.217Z,94148.56
2022-07-27T01:00:40.280Z,94150.88
2022-07-27T01:03:09.524Z,94141.59
2022-07-27T01:05:42.393Z,94143.19
2022-07-27T01:08:13.900Z,94136.25
2022-07-27T01:10:43.264Z,94137.03
2022-07-27T01:13:12.707Z,94146.31
2022-07-27T01:15:43.691Z,94138.34
2022-07-27T01:18:26.956Z,94135.72
2022-07-27T01:20:55.081Z,94137.81
2022-07-27T01:23:24.684Z,94141.81
2022-07-27T01:25:52.728Z,94143.38
2022-07-27T01:28:20.822Z,94143.94
2022-07-27T01:30:48.893Z,94135.97
2022-07-27T01:33:16.991Z,94147.91
2022-07-27T01:35:45.194Z,94144.91
2022-07-27T01:38:14.483Z,94155.78
2022-07-27T01:40:43.872Z,94158.91
2022-07-27T01:43:11.971Z,94155.72
2022-07-27T01:45:41.019Z,94151.16
2022-07-27T01:50:37.007Z,94150.41
2022-07-27T01:53:05.040Z,94148.25
2022-07-27T01:55:38.607Z,94151.09
2022-07-27T01:58:09.336Z,94147.16
2022-07-27T02:00:37.547Z,94150.81
2022-07-27T02:03:06.956Z,94154.81
2022-07-27T02:05:35.064Z,94152.97
2022-07-27T02:08:03.807Z,94155.59
2022-07-27T02:10:32.071Z,94154.00
2022-07-27T02:12:59.044Z,94154.81
2022-07-27T02:15:42.173Z,94155.72
2022-07-27T02:18:33.241Z,94163.47
2022-07-27T02:20:59.432Z,94149.97
2022-07-27T02:23:27.519Z,94157.69
2022-07-27T02:25:55.578Z,94156.38
2022-07-27T02:28:25.864Z,94155.81
2022-07-27T02:30:55.393Z,94162.75
2022-07-27T02:33:23.418Z,94166.69
2022-07-27T02:35:52.170Z,94166.41
2022-07-27T02:38:20.382Z,94160.31
2022-07-27T02:40:48.326Z,94160.84
2022-07-27T02:43:16.353Z,94168.28
2022-07-27T02:45:46.448Z,94171.22
2022-07-27T02:48:16.204Z,94169.63
2022-07-27T02:50:44.227Z,94165.69
2022-07-27T02:53:14.660Z,94171.25
2022-07-27T02:55:42.729Z,94167.75
2022-07-27T02:58:10.977Z,94169.63
2022-07-27T03:00:39.006Z,94178.31
2022-07-27T03:03:07.036Z,94183.81
2022-07-27T03:05:36.726Z,94185.91
2022-07-27T03:08:05.193Z,94188.50
2022-07-27T03:10:33.477Z,94186.63
2022-07-27T03:13:01.452Z,94194.31
2022-07-27T03:15:30.419Z,94198.75
2022-07-27T03:17:58.542Z,94201.13
2022-07-27T03:20:26.628Z,94201.88
2022-07-27T03:22:56.189Z,94200.00
2022-07-27T03:25:24.508Z,94201.22
2022-07-27T03:27:54.657Z,94196.97
2022-07-27T03:30:22.688Z,94202.19
2022-07-27T03:32:50.707Z,94200.50
2022-07-27T03:35:19.741Z,94197.75
2022-07-27T03:37:48.132Z,94194.53
2022-07-27T03:40:17.748Z,94195.34
2022-07-27T03:42:46.216Z,94193.75
2022-07-27T03:45:14.252Z,94197.13
2022-07-27T03:47:42.238Z,94200.66
2022-07-27T03:50:10.649Z,94202.13
2022-07-27T03:52:38.621Z,94214.03
2022-07-27T03:55:07.745Z,94218.81
2022-07-27T03:57:37.194Z,94217.50
2022-07-27T04:00:07.014Z,94206.97
2022-07-27T04:02:35.146Z,94213.94
2022-07-27T04:05:03.231Z,94215.69
2022-07-27T04:07:31.223Z,94216.25
2022-07-27T04:09:59.221Z,94213.22
2022-07-27T04:12:27.171Z,94208.81
2022-07-27T04:14:56.528Z,94211.00
2022-07-27T04:17:55.266Z,94206.91
2022-07-27T04:20:12.813Z,94212.28
2022-07-27T04:22:42.665Z,94213.41
2022-07-27T04:25:11.512Z,94214.84
2022-07-27T04:27:39.793Z,94223.06
2022-07-27T04:30:10.717Z,94219.69
2022-07-27T04:32:39.116Z,94226.34
2022-07-27T04:35:08.658Z,94229.31
2022-07-27T04:37:36.780Z,94226.69
2022-07-27T04:40:07.217Z,94231.75
2022-07-27T04:42:35.243Z,94233.09
2022-07-27T04:45:05.761Z,94239.22
2022-07-27T04:47:35.292Z,94247.69
2022-07-27T04:50:03.457Z,94255.94
2022-07-27T04:52:31.388Z,94259.59
2022-07-27T04:54:59.441Z,94253.53
2022-07-27T04:57:27.384Z,94264.94
2022-07-27T04:59:59.513Z,94266.22
2022-07-27T05:02:28.497Z,94257.72
2022-07-27T05:04:57.892Z,94260.91
2022-07-27T05:07:26.324Z,94272.06
2022-07-27T05:09:54.404Z,94266.75
2022-07-27T05:12:22.373Z,94270.00
2022-07-27T05:14:50.746Z,94270.81
2022-07-27T05:17:18.712Z,94270.63
2022-07-27T05:19:46.736Z,94273.22
2022-07-27T05:22:16.303Z,94265.50
2022-07-27T05:24:45.666Z,94274.75
2022-07-27T05:27:13.665Z,94273.97
2022-07-27T05:29:41.714Z,94275.28
2022-07-27T05:32:10.716Z,94280.34
2022-07-27T05:34:38.936Z,94281.41
2022-07-27T05:37:06.989Z,94280.34
2022-07-27T05:39:36.655Z,94277.44
2022-07-27T05:42:05.686Z,94266.91
2022-07-27T05:44:33.969Z,94266.94
2022-07-27T05:47:06.129Z,94267.25
2022-07-27T05:49:35.070Z,94269.13
2022-07-27T05:52:03.325Z,94281.63
2022-07-27T05:54:31.484Z,94271.25
2022-07-27T05:57:02.707Z,94277.66
2022-07-27T05:59:32.725Z,94275.50
2022-07-27T06:02:01.162Z,94281.66
2022-07-27T06:04:29.271Z,94278.47
2022-07-27T06:07:14.888Z,94275.84
2022-07-27T06:09:43.008Z,94276.13
2022-07-27T06:12:12.720Z,94275.59
2022-07-27T06:14:40.878Z,94267.09
2022-07-27T06:17:09.433Z,94280.38
2022-07-27T06:19:41.016Z,94278.78
2022-07-27T06:22:09.154Z,94278.25
2022-07-27T06:24:37.239Z,94283.84
2022-07-27T06:27:05.737Z,94280.63
2022-07-27T06:29:35.354Z,94273.22
2022-07-27T06:32:03.618Z,94284.63
2022-07-27T06:34:32.303Z,94286.72
2022-07-27T06:37:01.226Z,94286.72
2022-07-27T06:39:30.084Z,94280.84
2022-07-27T06:41:59.077Z,94288.84
2022-07-27T06:44:27.505Z,94288.59
2022-07-27T06:46:57.074Z,94291.75
2022-07-27T06:49:25.258Z,94284.34
2022-07-27T06:51:53.415Z,94288.34
2022-07-27T06:54:22.292Z,94285.63
2022-07-27T06:56:50.372Z,94286.16
2022-07-27T06:59:18.703Z,94282.66
2022-07-27T07:01:48.965Z,94281.28
2022-07-27T07:04:25.215Z,94287.91
2022-07-27T07:06:53.470Z,94279.94
2022-07-27T07:09:22.165Z,94273.84
2022-07-27T07:11:50.152Z,94270.09
2022-07-27T07:14:18.280Z,94273.75
2022-07-27T07:16:46.580Z,94275.09
2022-07-27T07:19:14.838Z,94267.03
2022-07-27T07:21:44.557Z,94273.66
2022-07-27T07:24:13.881Z,94264.09
2022-07-27T07:26:42.185Z,94268.38
2022-07-27T07:29:10.665Z,94267.84
2022-07-27T07:31:39.164Z,94263.75
2022-07-27T07:34:07.386Z,94273.28
2022-07-27T07:36:35.828Z,94270.94
2022-07-27T07:39:05.694Z,94271.91
2022-07-27T07:41:33.795Z,94273.47
2022-07-27T07:44:01.772Z,94266.81
2022-07-27T07:46:30.369Z,94269.41
2022-07-27T07:48:58.542Z,94260.34
2022-07-27T07:51:26.666Z,94264.75
2022-07-27T07:53:54.829Z,94262.19
2022-07-27T07:56:24.598Z,94259.28
2022-07-27T07:58:52.638Z,94262.81
2022-07-27T08:01:20.899Z,94265.44
2022-07-27T08:03:51.325Z,94272.34
2022-07-27T08:06:19.720Z,94258.44
2022-07-27T08:08:47.964Z,94261.97
2022-07-27T08:11:16.184Z,94267.66
2022-07-27T08:13:45.736Z,94258.81
2022-07-27T08:16:14.142Z,94266.88
2022-07-27T08:18:42.381Z,94267.88
2022-07-27T08:21:10.817Z,94264.31
2022-07-27T08:23:39.197Z,94260.22
2022-07-27T08:26:08.174Z,94253.09
2022-07-27T08:28:37.708Z,94259.91
2022-07-27T08:31:14.699Z,94256.53
2022-07-27T08:33:46.958Z,94250.19
2022-07-27T08:36:14.988Z,94251.44
2022-07-27T08:38:43.000Z,94244.22
2022-07-27T08:41:13.285Z,94251.75
2022-07-27T08:43:45.069Z,94244.28
2022-07-27T08:46:18.395Z,94244.88
2022-07-27T08:48:46.746Z,94244.38
2022-07-27T08:51:15.429Z,94245.28
2022-07-27T08:53:53.628Z,94245.47
2022-07-27T08:56:22.447Z,94242.88
2022-07-27T08:58:50.524Z,94247.94
2022-07-27T09:01:20.570Z,94239.22
2022-07-27T09:03:48.872Z,94234.84
2022-07-27T09:06:44.768Z,94226.22
2022-07-27T09:09:22.812Z,94228.78
2022-07-27T09:12:06.368Z,94221.06
2022-07-27T09:14:36.022Z,94218.75
2022-07-27T09:20:18.474Z,94220.13
2022-07-27T09:22:50.995Z,94219.94
2022-07-27T09:25:38.740Z,94221.78
2022-07-27T09:28:10.626Z,94222.94
2022-07-27T09:30:43.807Z,94212.03
2022-07-27T09:33:16.931Z,94222.81
2022-07-27T09:35:46.361Z,94213.84
2022-07-27T09:38:21.032Z,94216.28
2022-07-27T09:40:50.621Z,94208.91
2022-07-27T09:44:12.183Z,94207.84
2022-07-27T09:46:08.230Z,94207.75
2022-07-27T09:48:38.033Z,94204.91
2022-07-27T09:51:55.692Z,94205.06
2022-07-27T09:53:59.158Z,94208.69
2022-07-27T09:56:29.205Z,94203.53
2022-07-27T09:58:58.237Z,94197.22
2022-07-27T10:01:28.970Z,94203.84
2022-07-27T10:04:01.587Z,94195.97
2022-07-27T10:06:38.951Z,94187.06
2022-07-27T10:09:16.049Z,94195.97
2022-07-27T10:11:45.136Z,94192.44
2022-07-27T10:14:13.614Z,94190.75
2022-07-27T10:16:42.941Z,94185.06
2022-07-27T10:19:16.729Z,94192.78
2022-07-27T10:21:47.313Z,94186.13
2022-07-27T10:24:26.980Z,94190.69
2022-07-27T10:26:55.198Z,94187.22
2022-07-27T10:29:24.753Z,94187.66
2022-07-27T10:32:00.997Z,94190.00
2022-07-27T10:34:38.716Z,94189.59
2022-07-27T10:37:11.499Z,94173.13
2022-07-27T10:39:43.180Z,94181.81
2022-07-27T10:42:26.142Z,94179.63
2022-07-27T10:45:02.230Z,94166.66
2022-07-27T10:47:37.658Z,94166.28
2022-07-27T10:50:33.385Z,94165.75
2022-07-27T10:53:07.216Z,94168.53
2022-07-27T10:55:52.189Z,94169.47
2022-07-27T10:58:50.164Z,94155.78
2022-07-27T11:01:22.926Z,94159.03
2022-07-27T11:03:53.742Z,94160.41
2022-07-27T11:06:47.841Z,94147.81
2022-07-27T11:12:11.513Z,94144.25
2022-07-27T11:14:50.395Z,94146.63
2022-07-27T11:20:09.268Z,94151.66
2022-07-27T11:23:40.853Z,94146.03
2022-07-27T11:25:39.211Z,94141.84
2022-07-27T11:28:08.288Z,94150.84
2022-07-27T11:30:36.511Z,94142.13
2022-07-27T11:33:07.352Z,94135.09
2022-07-27T11:35:35.621Z,94136.06
2022-07-27T11:38:07.704Z,94132.34
2022-07-27T11:40:56.105Z,94131.72
2022-07-27T11:43:38.318Z,94128.31
2022-07-27T11:46:14.481Z,94124.72
2022-07-27T11:51:38.679Z,94121.00
2022-07-27T11:54:10.349Z,94115.47
2022-07-27T11:56:40.585Z,94112.63
2022-07-27T11:59:11.710Z,94115.03
2022-07-27T12:01:42.610Z,94110.78
2022-07-27T12:04:14.237Z,94110.72
2022-07-27T12:06:44.951Z,94101.81
2022-07-27T12:09:18.594Z,94105.59
2022-07-27T12:11:53.614Z,94098.91
2022-07-27T12:14:33.280Z,94097.06
2022-07-27T12:17:13.499Z,94094.06
2022-07-27T12:19:42.081Z,94094.34
2022-07-27T12:22:10.772Z,94090.47
2022-07-27T12:24:44.106Z,94086.19
2022-07-27T12:27:14.925Z,94077.59
2022-07-27T12:30:10.483Z,94085.00
2022-07-27T12:32:41.473Z,94073.84
2022-07-27T12:35:24.482Z,94085.19
2022-07-27T12:38:00.149Z,94074.81
2022-07-27T12:40:31.332Z,94075.06
2022-07-27T12:43:00.925Z,94078.91
2022-07-27T12:45:34.472Z,94077.47
2022-07-27T12:48:07.799Z,94069.34
2022-07-27T12:50:36.125Z,94065.00
2022-07-27T12:53:04.409Z,94051.72
2022-07-27T12:55:34.601Z,94057.78
2022-07-27T12:58:02.793Z,94048.28
2022-07-27T13:00:33.991Z,94048.66
2022-07-27T13:03:03.600Z,94044.16
2022-07-27T13:05:32.649Z,94043.81
2022-07-27T13:08:00.810Z,94041.63
2022-07-27T13:10:29.153Z,94033.75
2022-07-27T13:12:59.107Z,94031.72
2022-07-27T13:15:27.977Z,94038.94
2022-07-27T13:17:56.118Z,94041.28
2022-07-27T13:20:24.406Z,94026.84
2022-07-27T13:22:53.159Z,94035.84
2022-07-27T13:25:21.339Z,94042.00
2022-07-27T13:27:50.497Z,94035.34
2022-07-27T13:30:20.208Z,94023.63
2022-07-27T13:32:48.244Z,94020.84
2022-07-27T13:35:18.046Z,94019.34
2022-07-27T13:37:46.578Z,94010.03
2022-07-27T13:40:15.059Z,94010.47
2022-07-27T13:42:43.259Z,94009.16
2022-07-27T13:45:12.312Z,94008.28
2022-07-27T13:47:42.487Z,94003.97
2022-07-27T13:50:18.456Z,93997.31
2022-07-27T13:52:47.517Z,94002.03
2022-07-27T13:55:16.629Z,94001.38
2022-07-27T13:57:44.911Z,93989.97
2022-07-27T14:00:14.198Z,93982.97
2022-07-27T14:02:43.719Z,93989.19
2022-07-27T14:05:14.675Z,93993.63
2022-07-27T14:07:44.816Z,93987.53
2022-07-27T14:10:31.187Z,93989.47
2022-07-27T14:13:08.095Z,93990.94
2022-07-27T14:15:53.171Z,93985.06
2022-07-27T14:18:37.045Z,93997.63
2022-07-27T14:21:08.077Z,94004.31
2022-07-27T14:23:37.292Z,94003.25
2022-07-27T14:26:07.637Z,94001.47
2022-07-27T14:28:36.176Z,94005.03
2022-07-27T14:31:06.646Z,94005.34
2022-07-27T14:33:38.136Z,93990.47
2022-07-27T14:36:06.560Z,93996.13
2022-07-27T14:38:35.154Z,94006.06
2022-07-27T14:41:03.205Z,94001.69
2022-07-27T14:43:31.775Z,93979.94
2022-07-27T14:46:01.010Z,94006.25
2022-07-27T14:49:02.787Z,94005.88
2022-07-27T14:51:18.652Z,94009.09
2022-07-27T14:53:46.733Z,94005.38
2022-07-27T14:56:15.165Z,94005.91
2022-07-27T14:58:44.069Z,94018.34
2022-07-27T15:01:12.761Z,94016.53
2022-07-27T15:03:41.301Z,94020.63
2022-07-27T15:06:09.468Z,94034.75
2022-07-27T15:08:38.913Z,94030.19
2022-07-27T15:11:06.907Z,94042.50
2022-07-27T15:13:35.121Z,94031.91
2022-07-27T15:16:03.456Z,94028.13
2022-07-27T15:18:38.013Z,94025.44
2022-07-27T15:21:12.937Z,94025.88
2022-07-27T15:23:44.563Z,94020.69
2022-07-27T15:26:13.686Z,94030.31
2022-07-27T15:28:42.437Z,94027.00
2022-07-27T15:31:10.943Z,94027.81
2022-07-27T15:33:39.241Z,94018.19
2022-07-27T15:36:07.486Z,94031.31
2022-07-27T15:38:35.570Z,94031.59
2022-07-27T15:41:05.327Z,94032.56
2022-07-27T15:43:34.482Z,94031.91
2022-07-27T15:46:02.867Z,94033.00
2022-07-27T15:48:31.157Z,94034.59
2022-07-27T15:50:59.562Z,94035.38
2022-07-27T15:53:28.896Z,94040.31
2022-07-27T15:55:57.309Z,94041.06
2022-07-27T15:58:26.712Z,94048.78
2022-07-27T16:00:57.626Z,94048.19
2022-07-27T16:03:26.201Z,94047.72
2022-07-27T16:05:55.236Z,94049.81
2022-07-27T16:08:23.900Z,94048.38
2022-07-27T16:10:51.982Z,94042.69
2022-07-27T16:13:20.033Z,94047.69
2022-07-27T16:16:06.998Z,94052.34
2022-07-27T16:18:38.794Z,94036.22
2022-07-27T16:21:07.650Z,94045.88
2022-07-27T16:23:35.704Z,94047.66
2022-07-27T16:26:05.361Z,94050.50
2022-07-27T16:28:35.616Z,94045.94
2022-07-27T16:31:06.566Z,94049.56
2022-07-27T16:33:34.676Z,94051.09
2022-07-27T16:36:02.777Z,94049.84
2022-07-27T16:45:33.494Z,94055.69
2022-07-27T16:48:03.218Z,94046.06
2022-07-27T16:50:31.309Z,94066.91
2022-07-27T16:52:59.416Z,94071.94
2022-07-27T16:55:27.769Z,94080.50
2022-07-27T16:57:57.337Z,94083.84
2022-07-27T17:00:25.552Z,94079.28
2022-07-27T17:02:53.582Z,94082.34
2022-07-27T17:05:23.436Z,94085.19
2022-07-27T17:07:52.475Z,94085.31
2022-07-27T17:10:26.649Z,94085.16
2022-07-27T17:12:57.858Z,94086.56
2022-07-27T17:15:26.612Z,94082.78
2022-07-27T17:17:55.089Z,94088.66
2022-07-27T17:20:35.169Z,94097.81
2022-07-27T17:23:04.738Z,94092.28
2022-07-27T17:25:32.950Z,94084.53
2022-07-27T17:28:01.015Z,94091.81
2022-07-27T17:30:29.054Z,94092.88
2022-07-27T17:32:57.105Z,94086.50
2022-07-27T17:35:29.329Z,94089.09
2022-07-27T17:38:06.256Z,94086.53
2022-07-27T17:40:35.273Z,94089.53
2022-07-27T17:43:03.478Z,94088.38
2022-07-27T17:45:31.967Z,94093.38
2022-07-27T17:48:00.102Z,94080.44
2022-07-27T17:50:31.131Z,94091.09
2022-07-27T17:52:59.279Z,94101.63
2022-07-27T17:55:27.257Z,94100.13
2022-07-27T17:57:56.918Z,94103.41
2022-07-27T18:00:24.955Z,94106.47
2022-07-27T18:02:53.008Z,94105.88
2022-07-27T18:05:21.066Z,94107.59
2022-07-27T18:07:51.925Z,94114.28
2022-07-27T18:10:20.220Z,94119.59
2022-07-27T18:12:48.284Z,94112.50
2022-07-27T18:15:34.018Z,94132.22
2022-07-27T18:18:02.468Z,94128.41
2022-07-27T18:20:30.698Z,94114.31
2022-07-27T18:23:00.160Z,94132.88
2022-07-27T18:25:28.160Z,94134.94
2022-07-27T18:27:56.254Z,94139.69
2022-07-27T18:30:24.373Z,94140.97
2022-07-27T18:32:52.381Z,94143.25
2022-07-27T18:35:20.966Z,94142.28
2022-07-27T18:37:49.192Z,94138.03
2022-07-27T18:40:18.719Z,94153.81
2022-07-27T18:42:47.157Z,94155.72
2022-07-27T18:45:15.276Z,94157.56
2022-07-27T18:47:49.455Z,94166.66
2022-07-27T18:50:17.913Z,94169.38
2022-07-27T18:52:46.216Z,94169.06
2022-07-27T18:55:14.865Z,94178.91
2022-07-27T18:57:44.789Z,94187.50
2022-07-27T19:00:13.639Z,94186.75
2022-07-27T19:02:42.207Z,94188.63
2022-07-27T19:05:13.419Z,94192.69
2022-07-27T19:07:46.779Z,94185.66
2022-07-27T19:10:15.975Z,94187.56
2022-07-27T19:12:45.525Z,94192.50
2022-07-27T19:15:13.604Z,94191.75
2022-07-27T19:17:41.761Z,94194.22
2022-07-27T19:20:11.187Z,94195.66
2022-07-27T19:22:45.448Z,94200.47
2022-07-27T19:25:14.208Z,94207.03
2022-07-27T19:27:43.902Z,94197.63
2022-07-27T19:30:15.670Z,94205.00
2022-07-27T19:32:44.359Z,94201.25
2022-07-27T19:35:12.612Z,94202.66
2022-07-27T19:37:41.040Z,94200.09
2022-07-27T19:40:41.514Z,94202.22
2022-07-27T19:42:58.728Z,94197.72
2022-07-27T19:45:31.690Z,94201.81
2022-07-27T19:48:01.371Z,94205.53
2022-07-27T19:50:29.388Z,94199.53
2022-07-27T19:52:57.392Z,94204.09
2022-07-27T19:55:25.554Z,94203.88
2022-07-27T19:57:53.745Z,94191.41
2022-07-27T20:00:22.156Z,94197.16
2022-07-27T20:02:51.653Z,94200.09
2022-07-27T20:05:19.834Z,94204.13
2022-07-27T20:07:47.828Z,94202.28
2022-07-27T20:10:16.314Z,94202.66
2022-07-27T20:12:44.409Z,94202.75
2022-07-27T20:15:12.645Z,94206.22
2022-07-27T20:17:40.914Z,94208.75
2022-07-27T20:20:12.744Z,94210.13
2022-07-27T20:22:41.143Z,94203.56
2022-07-27T20:25:13.503Z,94205.41
2022-07-27T20:27:42.059Z,94221.63
2022-07-27T20:30:11.795Z,94226.41
2022-07-27T20:32:40.064Z,94226.44
2022-07-27T20:35:09.061Z,94223.56
2022-07-27T20:37:38.770Z,94222.78
2022-07-27T20:40:09.728Z,94224.94
2022-07-27T20:42:38.148Z,94234.56
2022-07-27T20:45:11.132Z,94227.69
2022-07-27T20:47:39.570Z,94241.53
2022-07-27T20:50:09.759Z,94249.78
2022-07-27T20:52:39.672Z,94243.41
2022-07-27T20:55:08.639Z,94245.81
2022-07-27T20:57:36.852Z,94245.53
2022-07-27T21:00:07.784Z,94241.00
2022-07-27T21:02:36.036Z,94251.91
2022-07-27T21:05:04.656Z,94251.91
2022-07-27T21:07:33.421Z,94249.53
2022-07-27T21:10:03.029Z,94242.09
2022-07-27T21:12:31.087Z,94245.53
2022-07-27T21:15:00.959Z,94236.47
2022-07-27T21:17:29.557Z,94246.31
2022-07-27T21:19:57.642Z,94251.63
2022-07-27T21:22:25.698Z,94247.38
2022-07-27T21:24:53.838Z,94263.34
2022-07-27T21:27:23.826Z,94266.53
2022-07-27T21:29:52.889Z,94266.25
2022-07-27T21:32:20.895Z,94275.28
2022-07-27T21:34:48.982Z,94276.09
2022-07-27T21:37:17.544Z,94275.06
2022-07-27T21:39:48.649Z,94274.81
2022-07-27T21:42:16.754Z,94276.13
2022-07-27T21:44:46.179Z,94288.34
2022-07-27T21:47:14.552Z,94290.47
2022-07-27T21:49:43.273Z,94295.50
2022-07-27T21:52:12.255Z,94300.75
2022-07-27T21:54:40.468Z,94305.81
2022-07-27T21:57:08.528Z,94311.63
2022-07-27T21:59:36.537Z,94313.75
2022-07-27T22:02:05.928Z,94312.13
2022-07-27T22:04:34.170Z,94320.09
2022-07-27T22:07:02.377Z,94327.47
2022-07-27T22:09:30.676Z,94331.13
2022-07-27T22:11:58.700Z,94323.66
2022-07-27T22:14:26.936Z,94317.31
2022-07-27T22:16:55.040Z,94325.28
2022-07-27T22:19:24.527Z,94324.53
2022-07-27T22:21:52.592Z,94325.84
2022-07-27T22:24:20.613Z,94328.22
2022-07-27T22:26:49.957Z,94335.66
2022-07-27T22:29:17.989Z,94342.81
2022-07-27T22:31:46.130Z,94344.94
2022-07-27T22:34:14.442Z,94341.75
2022-07-27T22:36:44.124Z,94349.72
2022-07-27T22:39:12.909Z,94351.03
2022-07-27T22:41:41.495Z,94363.50
2022-07-27T22:44:09.476Z,94365.34
2022-07-27T22:46:37.544Z,94387.06
2022-07-27T22:49:05.878Z,94375.66
2022-07-27T22:51:50.019Z,94371.44
2022-07-27T22:54:23.014Z,94376.78
2022-07-27T22:56:50.986Z,94366.44
2022-07-27T22:59:19.050Z,94376.81
2022-07-27T23:01:48.357Z,94365.38
2022-07-27T23:04:17.947Z,94371.81
2022-07-27T23:06:46.569Z,94375.78
2022-07-27T23:09:14.621Z,94394.38
2022-07-27T23:11:44.430Z,94400.22
2022-07-27T23:14:13.340Z,94397.84
2022-07-27T23:16:42.081Z,94399.44
2022-07-27T23:19:10.355Z,94401.34
2022-07-27T23:21:39.542Z,94396.03
2022-07-27T23:24:10.156Z,94404.00
2022-07-27T23:26:39.247Z,94411.44
2022-07-27T23:29:08.861Z,94396.28
2022-07-27T23:31:37.001Z,94400.53
2022-07-27T23:34:05.412Z,94402.69
2022-07-27T23:36:33.430Z,94398.16
2022-07-27T23:39:01.650Z,94403.19
2022-07-27T23:41:29.655Z,94387.34
2022-07-27T23:43:57.645Z,94387.38
2022-07-27T23:46:27.065Z,94396.69
2022-07-27T23:48:55.435Z,94396.69
2022-07-27T23:51:23.660Z,94392.91
2022-07-27T23:53:51.666Z,94403.53
2022-07-27T23:56:19.714Z,94395.53
2022-07-27T23:58:47.741Z,94387.56
